sensor_id;sensor_type;location;lat;lon;timestamp;temperature;humidity
27306;DHT22;14792;50.886;6.468;2023-04-19T00:01:03;11.30;99.90
27306;DHT22;14792;50.886;6.468;2023-04-19T00:04:05;11.30;99.90
27306;DHT22;14792;50.886;6.468;2023-04-19T00:07:06;11.40;99.90
27306;DHT22;14792;50.886;6.468;2023-04-19T00:10:08;11.50;99.90
27306;DHT22;14792;50.886;6.468;2023-04-19T00:13:10;11.50;99.90
27306;DHT22;14792;50.886;6.468;2023-04-19T00:16:11;11.50;99.90
27306;DHT22;14792;50.886;6.468;2023-04-19T00:19:13;11.50;99.90
27306;DHT22;14792;50.886;6.468;2023-04-19T00:22:15;11.50;99.90
27306;DHT22;14792;50.886;6.468;2023-04-19T00:25:16;11.50;99.90
27306;DHT22;14792;50.886;6.468;2023-04-19T00:28:18;11.40;99.90
27306;DHT22;14792;50.886;6.468;2023-04-19T00:31:19;11.40;99.90
27306;DHT22;14792;50.886;6.468;2023-04-19T00:34:21;11.30;99.90
27306;DHT22;14792;50.886;6.468;2023-04-19T00:37:22;11.30;99.90
27306;DHT22;14792;50.886;6.468;2023-04-19T00:40:24;11.30;99.90
27306;DHT22;14792;50.886;6.468;2023-04-19T00:43:26;11.20;99.90
27306;DHT22;14792;50.886;6.468;2023-04-19T00:46:27;11.20;99.90
27306;DHT22;14792;50.886;6.468;2023-04-19T00:49:29;11.10;99.90
27306;DHT22;14792;50.886;6.468;2023-04-19T00:52:31;11.10;99.90
27306;DHT22;14792;50.886;6.468;2023-04-19T00:55:32;11.10;99.90
27306;DHT22;14792;50.886;6.468;2023-04-19T00:58:34;11.00;99.90
27306;DHT22;14792;50.886;6.468;2023-04-19T01:01:35;11.00;99.90
27306;DHT22;14792;50.886;6.468;2023-04-19T01:04:37;11.00;99.90
27306;DHT22;14792;50.886;6.468;2023-04-19T01:07:38;11.00;99.90
27306;DHT22;14792;50.886;6.468;2023-04-19T01:10:40;10.90;99.90
27306;DHT22;14792;50.886;6.468;2023-04-19T01:13:42;10.90;99.90
27306;DHT22;14792;50.886;6.468;2023-04-19T01:16:43;10.90;99.90
27306;DHT22;14792;50.886;6.468;2023-04-19T01:19:45;10.90;99.90
27306;DHT22;14792;50.886;6.468;2023-04-19T01:22:46;10.90;99.90
27306;DHT22;14792;50.886;6.468;2023-04-19T01:25:48;10.90;99.90
27306;DHT22;14792;50.886;6.468;2023-04-19T01:28:49;10.90;99.90
27306;DHT22;14792;50.886;6.468;2023-04-19T01:31:51;10.80;99.90
27306;DHT22;14792;50.886;6.468;2023-04-19T01:34:53;10.80;99.90
27306;DHT22;14792;50.886;6.468;2023-04-19T01:37:54;10.80;99.90
27306;DHT22;14792;50.886;6.468;2023-04-19T01:40:56;10.80;99.90
27306;DHT22;14792;50.886;6.468;2023-04-19T01:43:57;10.70;99.90
27306;DHT22;14792;50.886;6.468;2023-04-19T01:46:59;10.70;99.90
27306;DHT22;14792;50.886;6.468;2023-04-19T01:50:01;10.60;99.90
27306;DHT22;14792;50.886;6.468;2023-04-19T01:53:02;10.50;99.90
27306;DHT22;14792;50.886;6.468;2023-04-19T01:56:04;10.50;99.90
27306;DHT22;14792;50.886;6.468;2023-04-19T01:59:05;10.40;99.90
27306;DHT22;14792;50.886;6.468;2023-04-19T02:02:07;10.40;99.90
27306;DHT22;14792;50.886;6.468;2023-04-19T02:05:09;10.30;99.90
27306;DHT22;14792;50.886;6.468;2023-04-19T02:08:10;10.30;99.90
27306;DHT22;14792;50.886;6.468;2023-04-19T02:11:12;10.20;99.90
27306;DHT22;14792;50.886;6.468;2023-04-19T02:14:16;10.10;99.90
27306;DHT22;14792;50.886;6.468;2023-04-19T02:17:18;10.10;99.90
27306;DHT22;14792;50.886;6.468;2023-04-19T02:20:19;10.00;99.90
27306;DHT22;14792;50.886;6.468;2023-04-19T02:23:21;10.00;99.90
27306;DHT22;14792;50.886;6.468;2023-04-19T02:26:22;9.90;99.90
27306;DHT22;14792;50.886;6.468;2023-04-19T02:29:24;9.90;99.90
27306;DHT22;14792;50.886;6.468;2023-04-19T02:32:26;9.90;99.90
27306;DHT22;14792;50.886;6.468;2023-04-19T02:35:27;9.80;99.90
27306;DHT22;14792;50.886;6.468;2023-04-19T02:38:29;9.80;99.90
27306;DHT22;14792;50.886;6.468;2023-04-19T02:41:30;9.80;99.90
27306;DHT22;14792;50.886;6.468;2023-04-19T02:44:32;9.70;99.90
27306;DHT22;14792;50.886;6.468;2023-04-19T02:47:34;9.70;99.90
27306;DHT22;14792;50.886;6.468;2023-04-19T02:50:35;9.80;99.90
27306;DHT22;14792;50.886;6.468;2023-04-19T02:53:37;9.80;99.90
27306;DHT22;14792;50.886;6.468;2023-04-19T02:56:38;9.80;99.90
27306;DHT22;14792;50.886;6.468;2023-04-19T02:59:40;9.80;99.90
27306;DHT22;14792;50.886;6.468;2023-04-19T03:02:42;9.80;99.90
27306;DHT22;14792;50.886;6.468;2023-04-19T03:05:46;9.80;99.90
27306;DHT22;14792;50.886;6.468;2023-04-19T03:08:48;9.80;99.90
27306;DHT22;14792;50.886;6.468;2023-04-19T03:11:49;9.80;99.90
27306;DHT22;14792;50.886;6.468;2023-04-19T03:14:51;9.70;99.90
27306;DHT22;14792;50.886;6.468;2023-04-19T03:17:53;9.80;99.90
27306;DHT22;14792;50.886;6.468;2023-04-19T03:20:54;9.80;99.90
27306;DHT22;14792;50.886;6.468;2023-04-19T03:23:56;9.80;99.90
27306;DHT22;14792;50.886;6.468;2023-04-19T03:26:57;9.80;99.90
27306;DHT22;14792;50.886;6.468;2023-04-19T03:29:59;9.90;99.90
27306;DHT22;14792;50.886;6.468;2023-04-19T03:33:01;9.90;99.90
27306;DHT22;14792;50.886;6.468;2023-04-19T03:36:02;9.90;99.90
27306;DHT22;14792;50.886;6.468;2023-04-19T03:39:04;10.00;99.90
27306;DHT22;14792;50.886;6.468;2023-04-19T03:42:05;10.00;99.90
27306;DHT22;14792;50.886;6.468;2023-04-19T03:45:07;10.10;99.90
27306;DHT22;14792;50.886;6.468;2023-04-19T03:48:09;10.10;99.90
27306;DHT22;14792;50.886;6.468;2023-04-19T03:51:11;10.10;99.90
27306;DHT22;14792;50.886;6.468;2023-04-19T03:54:12;10.10;99.90
27306;DHT22;14792;50.886;6.468;2023-04-19T03:57:15;10.10;99.90
27306;DHT22;14792;50.886;6.468;2023-04-19T04:00:15;10.10;99.90
27306;DHT22;14792;50.886;6.468;2023-04-19T04:03:17;10.20;99.90
27306;DHT22;14792;50.886;6.468;2023-04-19T04:06:18;10.20;99.90
27306;DHT22;14792;50.886;6.468;2023-04-19T04:09:20;10.20;99.90
27306;DHT22;14792;50.886;6.468;2023-04-19T04:12:22;10.20;99.90
27306;DHT22;14792;50.886;6.468;2023-04-19T04:15:23;10.20;99.90
27306;DHT22;14792;50.886;6.468;2023-04-19T04:18:25;10.20;99.90
27306;DHT22;14792;50.886;6.468;2023-04-19T04:21:27;10.20;99.90
27306;DHT22;14792;50.886;6.468;2023-04-19T04:24:28;10.10;99.90
27306;DHT22;14792;50.886;6.468;2023-04-19T04:27:30;10.10;99.90
27306;DHT22;14792;50.886;6.468;2023-04-19T04:30:32;10.10;99.90
27306;DHT22;14792;50.886;6.468;2023-04-19T04:33:33;10.10;99.90
27306;DHT22;14792;50.886;6.468;2023-04-19T04:36:35;10.00;99.90
27306;DHT22;14792;50.886;6.468;2023-04-19T04:39:39;10.00;99.90
27306;DHT22;14792;50.886;6.468;2023-04-19T04:42:41;10.00;99.90
27306;DHT22;14792;50.886;6.468;2023-04-19T04:45:42;10.00;99.90
27306;DHT22;14792;50.886;6.468;2023-04-19T04:48:44;10.00;99.90
27306;DHT22;14792;50.886;6.468;2023-04-19T04:51:45;10.00;99.90
27306;DHT22;14792;50.886;6.468;2023-04-19T04:54:47;10.00;99.90
27306;DHT22;14792;50.886;6.468;2023-04-19T04:57:49;10.00;99.90
27306;DHT22;14792;50.886;6.468;2023-04-19T05:00:50;10.00;99.90
27306;DHT22;14792;50.886;6.468;2023-04-19T05:03:52;10.10;99.90
27306;DHT22;14792;50.886;6.468;2023-04-19T05:06:53;10.00;99.90
27306;DHT22;14792;50.886;6.468;2023-04-19T05:09:55;10.10;99.90
27306;DHT22;14792;50.886;6.468;2023-04-19T05:12:57;10.10;99.90
27306;DHT22;14792;50.886;6.468;2023-04-19T05:15:58;10.20;99.90
27306;DHT22;14792;50.886;6.468;2023-04-19T05:19:00;10.20;99.90
27306;DHT22;14792;50.886;6.468;2023-04-19T05:22:01;10.20;99.90
27306;DHT22;14792;50.886;6.468;2023-04-19T05:25:03;10.20;99.90
27306;DHT22;14792;50.886;6.468;2023-04-19T05:28:05;10.30;99.90
27306;DHT22;14792;50.886;6.468;2023-04-19T05:31:09;10.30;99.90
27306;DHT22;14792;50.886;6.468;2023-04-19T05:34:10;10.40;99.90
27306;DHT22;14792;50.886;6.468;2023-04-19T05:37:12;10.40;99.90
27306;DHT22;14792;50.886;6.468;2023-04-19T05:40:14;10.40;99.90
27306;DHT22;14792;50.886;6.468;2023-04-19T05:43:15;10.50;99.90
27306;DHT22;14792;50.886;6.468;2023-04-19T05:46:17;10.50;99.90
27306;DHT22;14792;50.886;6.468;2023-04-19T05:49:18;10.60;99.90
27306;DHT22;14792;50.886;6.468;2023-04-19T05:52:20;10.70;99.90
27306;DHT22;14792;50.886;6.468;2023-04-19T05:55:21;10.70;99.90
27306;DHT22;14792;50.886;6.468;2023-04-19T05:58:23;10.70;99.90
27306;DHT22;14792;50.886;6.468;2023-04-19T06:01:25;10.80;99.90
27306;DHT22;14792;50.886;6.468;2023-04-19T06:04:26;10.80;99.90
27306;DHT22;14792;50.886;6.468;2023-04-19T06:07:28;10.80;99.90
27306;DHT22;14792;50.886;6.468;2023-04-19T06:10:30;10.90;99.90
27306;DHT22;14792;50.886;6.468;2023-04-19T06:13:31;10.90;99.90
27306;DHT22;14792;50.886;6.468;2023-04-19T06:16:33;10.90;99.90
27306;DHT22;14792;50.886;6.468;2023-04-19T06:19:34;10.90;99.90
27306;DHT22;14792;50.886;6.468;2023-04-19T06:22:43;11.00;99.90
27306;DHT22;14792;50.886;6.468;2023-04-19T06:25:43;10.90;99.90
27306;DHT22;14792;50.886;6.468;2023-04-19T06:28:45;10.90;99.90
27306;DHT22;14792;50.886;6.468;2023-04-19T06:31:47;10.90;99.90
27306;DHT22;14792;50.886;6.468;2023-04-19T06:34:48;10.90;99.90
27306;DHT22;14792;50.886;6.468;2023-04-19T06:37:50;11.00;99.90
27306;DHT22;14792;50.886;6.468;2023-04-19T06:40:51;11.00;99.90
27306;DHT22;14792;50.886;6.468;2023-04-19T06:43:53;11.10;99.90
27306;DHT22;14792;50.886;6.468;2023-04-19T06:46:54;11.20;99.90
27306;DHT22;14792;50.886;6.468;2023-04-19T06:49:56;11.10;99.90
27306;DHT22;14792;50.886;6.468;2023-04-19T06:52:58;11.30;99.90
27306;DHT22;14792;50.886;6.468;2023-04-19T06:56:00;11.20;99.90
27306;DHT22;14792;50.886;6.468;2023-04-19T06:59:01;11.20;99.90
27306;DHT22;14792;50.886;6.468;2023-04-19T07:02:02;11.30;99.90
27306;DHT22;14792;50.886;6.468;2023-04-19T07:05:04;11.30;99.90
27306;DHT22;14792;50.886;6.468;2023-04-19T07:08:06;11.30;99.90
27306;DHT22;14792;50.886;6.468;2023-04-19T07:11:08;11.30;99.90
27306;DHT22;14792;50.886;6.468;2023-04-19T07:14:09;11.30;99.90
27306;DHT22;14792;50.886;6.468;2023-04-19T07:17:11;11.40;99.90
27306;DHT22;14792;50.886;6.468;2023-04-19T07:20:12;11.50;99.90
27306;DHT22;14792;50.886;6.468;2023-04-19T07:23:14;11.60;99.90
27306;DHT22;14792;50.886;6.468;2023-04-19T07:26:15;11.60;99.90
27306;DHT22;14792;50.886;6.468;2023-04-19T07:29:17;11.70;99.90
27306;DHT22;14792;50.886;6.468;2023-04-19T07:32:19;11.80;99.90
27306;DHT22;14792;50.886;6.468;2023-04-19T07:35:20;11.90;99.90
27306;DHT22;14792;50.886;6.468;2023-04-19T07:38:22;12.10;99.90
27306;DHT22;14792;50.886;6.468;2023-04-19T07:41:23;12.20;99.90
27306;DHT22;14792;50.886;6.468;2023-04-19T07:44:25;12.30;99.90
27306;DHT22;14792;50.886;6.468;2023-04-19T07:47:27;12.30;99.90
27306;DHT22;14792;50.886;6.468;2023-04-19T07:50:28;12.40;99.90
27306;DHT22;14792;50.886;6.468;2023-04-19T07:53:30;12.80;99.90
27306;DHT22;14792;50.886;6.468;2023-04-19T07:56:32;12.90;99.90
27306;DHT22;14792;50.886;6.468;2023-04-19T07:59:33;13.00;99.90
27306;DHT22;14792;50.886;6.468;2023-04-19T08:02:35;13.50;99.90
27306;DHT22;14792;50.886;6.468;2023-04-19T08:05:36;13.90;99.90
27306;DHT22;14792;50.886;6.468;2023-04-19T08:08:41;14.30;99.90
27306;DHT22;14792;50.886;6.468;2023-04-19T08:11:42;14.30;99.90
27306;DHT22;14792;50.886;6.468;2023-04-19T08:14:44;14.00;99.90
27306;DHT22;14792;50.886;6.468;2023-04-19T08:17:45;14.30;99.90
27306;DHT22;14792;50.886;6.468;2023-04-19T08:20:47;14.40;99.90
27306;DHT22;14792;50.886;6.468;2023-04-19T08:23:49;14.50;99.90
27306;DHT22;14792;50.886;6.468;2023-04-19T08:26:50;14.70;99.90
27306;DHT22;14792;50.886;6.468;2023-04-19T08:29:54;14.60;99.90
27306;DHT22;14792;50.886;6.468;2023-04-19T08:32:56;14.60;99.90
27306;DHT22;14792;50.886;6.468;2023-04-19T08:35:58;14.80;99.90
27306;DHT22;14792;50.886;6.468;2023-04-19T08:38:59;15.10;99.90
27306;DHT22;14792;50.886;6.468;2023-04-19T08:42:05;15.20;99.90
27306;DHT22;14792;50.886;6.468;2023-04-19T08:45:06;15.20;99.90
27306;DHT22;14792;50.886;6.468;2023-04-19T08:48:07;15.60;99.90
27306;DHT22;14792;50.886;6.468;2023-04-19T08:51:10;15.70;99.90
27306;DHT22;14792;50.886;6.468;2023-04-19T08:54:10;15.60;99.90
27306;DHT22;14792;50.886;6.468;2023-04-19T08:57:12;16.00;99.90
27306;DHT22;14792;50.886;6.468;2023-04-19T09:00:14;16.00;99.90
27306;DHT22;14792;50.886;6.468;2023-04-19T09:03:15;16.50;99.90
27306;DHT22;14792;50.886;6.468;2023-04-19T09:06:17;16.60;99.90
27306;DHT22;14792;50.886;6.468;2023-04-19T09:09:25;16.40;99.90
27306;DHT22;14792;50.886;6.468;2023-04-19T09:12:26;16.20;99.90
27306;DHT22;14792;50.886;6.468;2023-04-19T09:15:34;16.10;99.90
27306;DHT22;14792;50.886;6.468;2023-04-19T09:18:51;16.20;99.90
27306;DHT22;14792;50.886;6.468;2023-04-19T09:21:40;16.20;99.90
27306;DHT22;14792;50.886;6.468;2023-04-19T09:24:41;15.90;99.90
27306;DHT22;14792;50.886;6.468;2023-04-19T09:27:43;16.00;99.90
27306;DHT22;14792;50.886;6.468;2023-04-19T09:30:45;16.20;99.90
27306;DHT22;14792;50.886;6.468;2023-04-19T09:33:46;16.30;99.90
27306;DHT22;14792;50.886;6.468;2023-04-19T09:36:48;16.20;99.90
27306;DHT22;14792;50.886;6.468;2023-04-19T09:39:49;16.50;99.90
27306;DHT22;14792;50.886;6.468;2023-04-19T09:42:51;16.70;99.90
27306;DHT22;14792;50.886;6.468;2023-04-19T09:45:53;16.30;99.90
27306;DHT22;14792;50.886;6.468;2023-04-19T09:48:54;16.60;99.90
27306;DHT22;14792;50.886;6.468;2023-04-19T09:51:56;16.30;99.90
27306;DHT22;14792;50.886;6.468;2023-04-19T09:54:58;16.60;99.90
27306;DHT22;14792;50.886;6.468;2023-04-19T09:57:59;16.70;99.90
27306;DHT22;14792;50.886;6.468;2023-04-19T10:01:01;16.40;99.90
27306;DHT22;14792;50.886;6.468;2023-04-19T10:04:05;16.90;99.90
27306;DHT22;14792;50.886;6.468;2023-04-19T10:07:07;16.60;99.90
27306;DHT22;14792;50.886;6.468;2023-04-19T10:10:09;16.50;99.90
27306;DHT22;14792;50.886;6.468;2023-04-19T10:13:10;16.60;99.90
27306;DHT22;14792;50.886;6.468;2023-04-19T10:16:12;16.70;99.90
27306;DHT22;14792;50.886;6.468;2023-04-19T10:19:17;16.20;99.90
27306;DHT22;14792;50.886;6.468;2023-04-19T10:22:18;15.90;99.90
27306;DHT22;14792;50.886;6.468;2023-04-19T10:25:19;16.20;99.90
27306;DHT22;14792;50.886;6.468;2023-04-19T10:28:21;16.20;99.90
27306;DHT22;14792;50.886;6.468;2023-04-19T10:31:24;16.20;99.90
27306;DHT22;14792;50.886;6.468;2023-04-19T10:34:36;16.50;99.90
27306;DHT22;14792;50.886;6.468;2023-04-19T10:37:40;16.70;99.90
27306;DHT22;14792;50.886;6.468;2023-04-19T10:47:00;17.00;99.00
27306;DHT22;14792;50.886;6.468;2023-04-19T10:49:58;17.20;98.80
27306;DHT22;14792;50.886;6.468;2023-04-19T10:53:41;16.90;97.20
27306;DHT22;14792;50.886;6.468;2023-04-19T10:56:01;16.70;97.30
27306;DHT22;14792;50.886;6.468;2023-04-19T11:05:23;16.80;96.30
27306;DHT22;14792;50.886;6.468;2023-04-19T11:08:25;16.70;96.30
27306;DHT22;14792;50.886;6.468;2023-04-19T11:11:27;16.40;96.20
27306;DHT22;14792;50.886;6.468;2023-04-19T11:14:32;16.50;96.50
27306;DHT22;14792;50.886;6.468;2023-04-19T11:17:32;16.90;96.60
27306;DHT22;14792;50.886;6.468;2023-04-19T11:20:34;17.30;97.00
27306;DHT22;14792;50.886;6.468;2023-04-19T11:23:35;17.10;96.90
27306;DHT22;14792;50.886;6.468;2023-04-19T11:26:37;16.80;95.90
27306;DHT22;14792;50.886;6.468;2023-04-19T11:29:39;17.00;95.40
27306;DHT22;14792;50.886;6.468;2023-04-19T11:32:46;17.00;94.80
27306;DHT22;14792;50.886;6.468;2023-04-19T11:35:45;17.10;94.30
27306;DHT22;14792;50.886;6.468;2023-04-19T11:38:46;16.90;93.80
27306;DHT22;14792;50.886;6.468;2023-04-19T11:41:48;16.80;93.90
27306;DHT22;14792;50.886;6.468;2023-04-19T11:44:50;16.50;93.80
27306;DHT22;14792;50.886;6.468;2023-04-19T11:47:51;16.50;93.60
27306;DHT22;14792;50.886;6.468;2023-04-19T11:50:56;16.50;92.60
27306;DHT22;14792;50.886;6.468;2023-04-19T11:53:54;17.20;92.90
27306;DHT22;14792;50.886;6.468;2023-04-19T11:57:03;17.40;91.80
27306;DHT22;14792;50.886;6.468;2023-04-19T12:00:07;17.60;90.70
27306;DHT22;14792;50.886;6.468;2023-04-19T12:03:11;17.30;90.50
27306;DHT22;14792;50.886;6.468;2023-04-19T12:06:13;17.30;90.10
27306;DHT22;14792;50.886;6.468;2023-04-19T12:09:14;17.40;86.40
27306;DHT22;14792;50.886;6.468;2023-04-19T12:12:30;17.70;88.30
27306;DHT22;14792;50.886;6.468;2023-04-19T12:15:17;17.70;84.70
27306;DHT22;14792;50.886;6.468;2023-04-19T12:18:19;17.60;83.90
27306;DHT22;14792;50.886;6.468;2023-04-19T12:21:27;17.10;84.10
27306;DHT22;14792;50.886;6.468;2023-04-19T12:24:28;17.00;82.10
27306;DHT22;14792;50.886;6.468;2023-04-19T12:27:30;17.00;81.20
27306;DHT22;14792;50.886;6.468;2023-04-19T12:30:31;17.20;81.00
27306;DHT22;14792;50.886;6.468;2023-04-19T12:33:33;16.90;78.90
27306;DHT22;14792;50.886;6.468;2023-04-19T12:36:35;17.40;80.60
27306;DHT22;14792;50.886;6.468;2023-04-19T12:39:36;16.90;78.30
27306;DHT22;14792;50.886;6.468;2023-04-19T12:42:38;17.20;80.10
27306;DHT22;14792;50.886;6.468;2023-04-19T12:45:39;17.50;80.00
27306;DHT22;14792;50.886;6.468;2023-04-19T12:48:41;17.80;80.20
27306;DHT22;14792;50.886;6.468;2023-04-19T12:51:43;17.70;78.10
27306;DHT22;14792;50.886;6.468;2023-04-19T12:54:44;17.60;78.70
27306;DHT22;14792;50.886;6.468;2023-04-19T12:57:46;17.30;77.80
27306;DHT22;14792;50.886;6.468;2023-04-19T13:00:47;17.30;77.60
27306;DHT22;14792;50.886;6.468;2023-04-19T13:03:49;17.20;77.30
27306;DHT22;14792;50.886;6.468;2023-04-19T13:06:51;17.30;78.90
27306;DHT22;14792;50.886;6.468;2023-04-19T13:09:52;17.20;79.60
27306;DHT22;14792;50.886;6.468;2023-04-19T13:12:54;17.00;79.10
27306;DHT22;14792;50.886;6.468;2023-04-19T13:15:55;16.80;77.10
27306;DHT22;14792;50.886;6.468;2023-04-19T13:18:57;16.50;78.80
27306;DHT22;14792;50.886;6.468;2023-04-19T13:21:58;16.70;79.60
27306;DHT22;14792;50.886;6.468;2023-04-19T13:25:00;17.20;78.20
27306;DHT22;14792;50.886;6.468;2023-04-19T13:28:02;17.10;77.80
27306;DHT22;14792;50.886;6.468;2023-04-19T13:31:03;16.70;77.70
27306;DHT22;14792;50.886;6.468;2023-04-19T13:34:05;16.30;78.70
27306;DHT22;14792;50.886;6.468;2023-04-19T13:37:07;16.70;79.70
27306;DHT22;14792;50.886;6.468;2023-04-19T13:40:09;16.90;77.80
27306;DHT22;14792;50.886;6.468;2023-04-19T13:43:10;17.10;78.40
27306;DHT22;14792;50.886;6.468;2023-04-19T13:46:11;17.30;80.10
27306;DHT22;14792;50.886;6.468;2023-04-19T13:49:13;17.40;78.10
27306;DHT22;14792;50.886;6.468;2023-04-19T13:52:15;17.40;76.00
27306;DHT22;14792;50.886;6.468;2023-04-19T13:55:16;17.30;76.50
27306;DHT22;14792;50.886;6.468;2023-04-19T13:58:18;17.30;75.90
27306;DHT22;14792;50.886;6.468;2023-04-19T14:01:19;17.30;76.50
27306;DHT22;14792;50.886;6.468;2023-04-19T14:04:21;17.40;78.70
27306;DHT22;14792;50.886;6.468;2023-04-19T14:07:23;17.30;76.30
27306;DHT22;14792;50.886;6.468;2023-04-19T14:10:24;17.50;77.90
27306;DHT22;14792;50.886;6.468;2023-04-19T14:13:26;17.90;75.90
27306;DHT22;14792;50.886;6.468;2023-04-19T14:16:27;17.60;76.60
27306;DHT22;14792;50.886;6.468;2023-04-19T14:19:29;17.90;74.40
27306;DHT22;14792;50.886;6.468;2023-04-19T14:22:31;17.60;74.90
27306;DHT22;14792;50.886;6.468;2023-04-19T14:25:32;18.00;76.50
27306;DHT22;14792;50.886;6.468;2023-04-19T14:28:34;18.30;74.50
27306;DHT22;14792;50.886;6.468;2023-04-19T14:31:35;17.90;71.90
27306;DHT22;14792;50.886;6.468;2023-04-19T14:34:37;17.90;72.60
27306;DHT22;14792;50.886;6.468;2023-04-19T14:37:39;17.50;72.70
27306;DHT22;14792;50.886;6.468;2023-04-19T14:40:40;17.40;72.60
27306;DHT22;14792;50.886;6.468;2023-04-19T14:43:42;17.40;72.80
27306;DHT22;14792;50.886;6.468;2023-04-19T14:46:43;17.40;73.80
27306;DHT22;14792;50.886;6.468;2023-04-19T14:49:45;17.30;72.60
27306;DHT22;14792;50.886;6.468;2023-04-19T14:52:47;17.40;75.00
27306;DHT22;14792;50.886;6.468;2023-04-19T14:55:48;17.30;74.40
27306;DHT22;14792;50.886;6.468;2023-04-19T14:58:52;17.80;73.80
27306;DHT22;14792;50.886;6.468;2023-04-19T15:01:54;17.70;72.30
27306;DHT22;14792;50.886;6.468;2023-04-19T15:04:55;17.20;72.40
27306;DHT22;14792;50.886;6.468;2023-04-19T15:07:57;17.20;73.90
27306;DHT22;14792;50.886;6.468;2023-04-19T15:10:59;17.30;71.70
27306;DHT22;14792;50.886;6.468;2023-04-19T15:14:00;17.10;73.60
27306;DHT22;14792;50.886;6.468;2023-04-19T15:17:02;17.30;73.20
27306;DHT22;14792;50.886;6.468;2023-04-19T15:20:03;17.20;72.40
27306;DHT22;14792;50.886;6.468;2023-04-19T15:23:05;17.10;71.20
27306;DHT22;14792;50.886;6.468;2023-04-19T15:26:07;16.90;70.80
27306;DHT22;14792;50.886;6.468;2023-04-19T15:29:08;16.70;71.10
27306;DHT22;14792;50.886;6.468;2023-04-19T15:32:10;16.70;71.80
27306;DHT22;14792;50.886;6.468;2023-04-19T15:35:11;16.90;70.50
27306;DHT22;14792;50.886;6.468;2023-04-19T15:38:13;16.80;72.40
27306;DHT22;14792;50.886;6.468;2023-04-19T15:41:15;17.10;71.70
27306;DHT22;14792;50.886;6.468;2023-04-19T15:44:16;17.00;70.30
27306;DHT22;14792;50.886;6.468;2023-04-19T15:47:18;17.00;70.60
27306;DHT22;14792;50.886;6.468;2023-04-19T15:50:19;17.00;68.70
27306;DHT22;14792;50.886;6.468;2023-04-19T15:53:21;17.00;70.00
27306;DHT22;14792;50.886;6.468;2023-04-19T15:56:23;16.80;70.30
27306;DHT22;14792;50.886;6.468;2023-04-19T15:59:24;16.60;68.70
27306;DHT22;14792;50.886;6.468;2023-04-19T16:02:26;16.40;69.50
27306;DHT22;14792;50.886;6.468;2023-04-19T16:05:28;16.30;69.20
27306;DHT22;14792;50.886;6.468;2023-04-19T16:08:29;16.40;70.00
27306;DHT22;14792;50.886;6.468;2023-04-19T16:11:31;16.30;68.30
27306;DHT22;14792;50.886;6.468;2023-04-19T16:14:32;16.20;68.00
27306;DHT22;14792;50.886;6.468;2023-04-19T16:17:34;16.10;68.20
27306;DHT22;14792;50.886;6.468;2023-04-19T16:20:36;16.40;68.80
27306;DHT22;14792;50.886;6.468;2023-04-19T16:23:37;16.70;69.80
27306;DHT22;14792;50.886;6.468;2023-04-19T16:26:39;16.30;68.60
27306;DHT22;14792;50.886;6.468;2023-04-19T16:29:40;16.30;68.20
27306;DHT22;14792;50.886;6.468;2023-04-19T16:32:42;16.20;68.90
27306;DHT22;14792;50.886;6.468;2023-04-19T16:35:44;16.30;69.30
27306;DHT22;14792;50.886;6.468;2023-04-19T16:38:45;16.20;69.00
27306;DHT22;14792;50.886;6.468;2023-04-19T16:41:47;16.30;69.40
27306;DHT22;14792;50.886;6.468;2023-04-19T16:44:48;15.90;67.60
27306;DHT22;14792;50.886;6.468;2023-04-19T16:47:50;15.70;67.60
27306;DHT22;14792;50.886;6.468;2023-04-19T16:50:52;15.60;69.10
27306;DHT22;14792;50.886;6.468;2023-04-19T16:53:53;15.50;69.30
27306;DHT22;14792;50.886;6.468;2023-04-19T16:56:55;15.40;68.80
27306;DHT22;14792;50.886;6.468;2023-04-19T16:59:56;15.30;70.40
27306;DHT22;14792;50.886;6.468;2023-04-19T17:02:58;15.10;69.40
27306;DHT22;14792;50.886;6.468;2023-04-19T17:06:00;15.00;69.60
27306;DHT22;14792;50.886;6.468;2023-04-19T17:09:01;14.90;71.00
27306;DHT22;14792;50.886;6.468;2023-04-19T17:12:03;14.80;70.80
27306;DHT22;14792;50.886;6.468;2023-04-19T17:15:04;14.70;70.80
27306;DHT22;14792;50.886;6.468;2023-04-19T17:18:07;14.70;70.30
27306;DHT22;14792;50.886;6.468;2023-04-19T17:21:08;14.40;70.60
27306;DHT22;14792;50.886;6.468;2023-04-19T17:24:09;14.40;71.20
27306;DHT22;14792;50.886;6.468;2023-04-19T17:27:11;14.20;71.00
27306;DHT22;14792;50.886;6.468;2023-04-19T17:30:12;14.30;71.90
27306;DHT22;14792;50.886;6.468;2023-04-19T17:33:14;14.10;72.30
27306;DHT22;14792;50.886;6.468;2023-04-19T17:36:16;14.10;72.90
27306;DHT22;14792;50.886;6.468;2023-04-19T17:39:17;14.10;73.60
27306;DHT22;14792;50.886;6.468;2023-04-19T17:42:19;14.00;74.40
27306;DHT22;14792;50.886;6.468;2023-04-19T17:45:20;14.00;75.10
27306;DHT22;14792;50.886;6.468;2023-04-19T17:48:22;13.90;75.40
27306;DHT22;14792;50.886;6.468;2023-04-19T17:51:24;13.70;75.70
27306;DHT22;14792;50.886;6.468;2023-04-19T17:54:26;13.60;75.70
27306;DHT22;14792;50.886;6.468;2023-04-19T17:57:27;13.50;75.50
27306;DHT22;14792;50.886;6.468;2023-04-19T18:00:29;13.40;75.00
27306;DHT22;14792;50.886;6.468;2023-04-19T18:03:30;13.30;75.00
27306;DHT22;14792;50.886;6.468;2023-04-19T18:06:32;13.20;75.70
27306;DHT22;14792;50.886;6.468;2023-04-19T18:09:34;13.20;76.20
27306;DHT22;14792;50.886;6.468;2023-04-19T18:12:35;13.10;76.20
27306;DHT22;14792;50.886;6.468;2023-04-19T18:15:37;13.10;75.60
27306;DHT22;14792;50.886;6.468;2023-04-19T18:18:38;13.00;76.70
27306;DHT22;14792;50.886;6.468;2023-04-19T18:21:40;12.90;75.60
27306;DHT22;14792;50.886;6.468;2023-04-19T18:24:42;12.90;76.90
27306;DHT22;14792;50.886;6.468;2023-04-19T18:27:43;12.80;76.60
27306;DHT22;14792;50.886;6.468;2023-04-19T18:30:45;12.70;75.10
27306;DHT22;14792;50.886;6.468;2023-04-19T18:33:46;12.70;75.40
27306;DHT22;14792;50.886;6.468;2023-04-19T18:36:48;12.60;76.00
27306;DHT22;14792;50.886;6.468;2023-04-19T18:39:50;12.50;76.50
27306;DHT22;14792;50.886;6.468;2023-04-19T18:42:51;12.40;77.40
27306;DHT22;14792;50.886;6.468;2023-04-19T18:45:55;12.30;77.00
27306;DHT22;14792;50.886;6.468;2023-04-19T18:48:57;12.20;76.80
27306;DHT22;14792;50.886;6.468;2023-04-19T18:51:58;12.20;77.00
27306;DHT22;14792;50.886;6.468;2023-04-19T18:55:00;12.10;77.50
27306;DHT22;14792;50.886;6.468;2023-04-19T18:58:01;12.10;76.90
27306;DHT22;14792;50.886;6.468;2023-04-19T19:01:03;12.00;77.80
27306;DHT22;14792;50.886;6.468;2023-04-19T19:04:05;11.90;77.80
27306;DHT22;14792;50.886;6.468;2023-04-19T19:07:06;11.80;78.60
27306;DHT22;14792;50.886;6.468;2023-04-19T19:10:08;11.70;78.60
27306;DHT22;14792;50.886;6.468;2023-04-19T19:13:09;11.60;77.80
27306;DHT22;14792;50.886;6.468;2023-04-19T19:16:11;11.60;77.60
27306;DHT22;14792;50.886;6.468;2023-04-19T19:19:13;11.60;77.70
27306;DHT22;14792;50.886;6.468;2023-04-19T19:22:14;11.60;78.00